createdAt,value
2022-10-05T00:02:58.114Z,12.90
2022-10-05T00:07:16.854Z,12.90
2022-10-05T00:11:18.781Z,13.00
2022-10-05T00:15:22.121Z,13.00
2022-10-05T00:19:36.448Z,12.60
2022-10-05T00:23:38.240Z,12.80
2022-10-05T00:27:40.104Z,13.20
2022-10-05T00:31:41.867Z,12.70
2022-10-05T00:35:43.716Z,12.50
2022-10-05T00:39:45.984Z,12.30
2022-10-05T00:44:25.014Z,12.60
2022-10-05T00:48:45.957Z,12.20
2022-10-05T00:53:25.329Z,12.60
2022-10-05T00:57:47.230Z,12.60
2022-10-05T01:01:48.882Z,12.40
2022-10-05T01:06:08.442Z,12.00
2022-10-05T01:10:34.468Z,12.30
2022-10-05T01:14:41.954Z,12.70
2022-10-05T01:18:43.573Z,13.00
2022-10-05T01:23:07.327Z,12.00
2022-10-05T01:27:15.163Z,11.90
2022-10-05T01:31:45.572Z,12.50
2022-10-05T01:35:57.803Z,12.50
2022-10-05T01:40:08.638Z,12.30
2022-10-05T01:44:25.786Z,12.40
2022-10-05T01:48:58.586Z,12.30
2022-10-05T01:53:00.206Z,11.80
2022-10-05T01:57:27.213Z,11.20
2022-10-05T02:01:37.836Z,12.30
2022-10-05T02:05:48.346Z,12.80
2022-10-05T02:10:04.653Z,13.20
2022-10-05T02:14:15.665Z,13.20
2022-10-05T02:18:21.897Z,13.70
2022-10-05T02:22:28.682Z,13.60
2022-10-05T02:26:32.009Z,12.70
2022-10-05T02:30:40.008Z,13.30
2022-10-05T02:34:43.362Z,13.50
2022-10-05T02:38:55.597Z,13.50
2022-10-05T02:43:24.067Z,13.40
2022-10-05T02:48:06.377Z,12.50
2022-10-05T02:52:36.529Z,12.80
2022-10-05T02:57:00.432Z,13.40
2022-10-05T03:01:31.939Z,13.70
2022-10-05T03:06:00.657Z,13.70
2022-10-05T03:10:11.300Z,13.80
2022-10-05T03:14:23.368Z,13.60
2022-10-05T03:18:52.760Z,13.70
2022-10-05T03:22:59.443Z,13.50
2022-10-05T03:27:28.908Z,13.70
2022-10-05T03:31:36.909Z,13.50
2022-10-05T03:35:51.266Z,13.50
2022-10-05T03:40:08.234Z,13.50
2022-10-05T03:44:18.767Z,13.80
2022-10-05T03:48:32.335Z,13.80
2022-10-05T03:52:44.155Z,14.00
2022-10-05T03:57:16.586Z,13.70
2022-10-05T04:01:24.426Z,13.00
2022-10-05T04:05:35.458Z,12.90
2022-10-05T04:09:45.598Z,13.10
2022-10-05T04:13:51.061Z,13.40
2022-10-05T04:17:59.923Z,13.80
2022-10-05T04:22:25.081Z,13.80
2022-10-05T04:26:34.238Z,13.60
2022-10-05T04:30:39.191Z,13.50
2022-10-05T04:34:49.266Z,13.50
2022-10-05T04:39:14.720Z,13.20
2022-10-05T04:43:22.137Z,13.50
2022-10-05T04:47:42.747Z,13.50
2022-10-05T04:51:51.034Z,13.70
2022-10-05T04:56:11.335Z,13.70
2022-10-05T05:00:24.043Z,13.50
2022-10-05T05:04:25.661Z,13.50
2022-10-05T05:08:45.806Z,13.10
2022-10-05T05:13:01.474Z,13.40
2022-10-05T05:17:17.873Z,13.60
2022-10-05T05:21:38.086Z,13.20
2022-10-05T05:26:07.542Z,13.10
2022-10-05T05:30:16.287Z,13.20
2022-10-05T05:34:52.817Z,13.40
2022-10-05T05:39:18.892Z,13.30
2022-10-05T05:43:53.108Z,12.80
2022-10-05T05:47:58.425Z,13.00
2022-10-05T05:52:06.524Z,13.00
2022-10-05T05:56:16.027Z,13.20
2022-10-05T06:00:24.871Z,13.20
2022-10-05T06:04:33.273Z,13.30
2022-10-05T06:08:51.509Z,13.60
2022-10-05T06:13:01.482Z,12.80
2022-10-05T06:17:26.399Z,12.90
2022-10-05T06:21:30.861Z,13.30
2022-10-05T06:25:53.658Z,13.50
2022-10-05T06:30:06.594Z,13.30
2022-10-05T06:34:14.722Z,13.50
2022-10-05T06:38:44.352Z,13.60
2022-10-05T06:43:14.804Z,12.60
2022-10-05T06:47:19.308Z,13.30
2022-10-05T06:51:31.389Z,13.80
2022-10-05T06:56:17.608Z,14.00
2022-10-05T07:00:20.550Z,14.10
2022-10-05T07:04:46.267Z,14.00
2022-10-05T07:09:14.696Z,13.80
2022-10-05T07:13:40.107Z,13.40
2022-10-05T07:18:00.703Z,13.80
2022-10-05T07:22:17.365Z,14.10
2022-10-05T07:26:45.485Z,14.10
2022-10-05T07:31:06.925Z,14.10
2022-10-05T07:35:42.078Z,14.40
2022-10-05T07:40:05.281Z,14.70
2022-10-05T07:44:32.101Z,14.80
2022-10-05T07:48:50.513Z,15.00
2022-10-05T07:52:58.405Z,14.50
2022-10-05T07:57:19.694Z,14.70
2022-10-05T08:01:42.155Z,15.10
2022-10-05T08:05:46.989Z,15.70
2022-10-05T08:09:59.358Z,15.50
2022-10-05T08:14:14.078Z,15.70
2022-10-05T08:18:43.101Z,15.10
2022-10-05T08:22:54.220Z,15.40
2022-10-05T08:27:02.302Z,15.10
2022-10-05T08:31:27.395Z,15.40
2022-10-05T08:35:43.853Z,15.80
2022-10-05T08:40:00.766Z,16.00
2022-10-05T08:44:33.520Z,15.70
2022-10-05T08:48:40.959Z,15.90
2022-10-05T08:52:58.187Z,16.30
2022-10-05T08:57:25.744Z,16.40
2022-10-05T09:02:05.344Z,16.60
2022-10-05T09:06:44.510Z,16.70
2022-10-05T09:11:00.906Z,17.20
2022-10-05T09:15:33.816Z,16.80
2022-10-05T09:19:54.327Z,17.00
2022-10-05T09:24:14.433Z,17.50
2022-10-05T09:28:35.318Z,17.20
2022-10-05T09:33:09.136Z,17.00
2022-10-05T09:37:33.185Z,17.10
2022-10-05T09:41:53.618Z,17.00
2022-10-05T09:46:22.647Z,17.30
2022-10-05T09:50:53.894Z,17.40
2022-10-05T09:55:08.277Z,17.40
2022-10-05T09:59:31.531Z,16.50
2022-10-05T10:03:54.261Z,17.20
2022-10-05T10:08:25.238Z,17.20
2022-10-05T10:12:36.146Z,17.40
2022-10-05T10:17:06.912Z,17.30
2022-10-05T10:21:11.416Z,16.70
2022-10-05T10:25:35.084Z,17.00
2022-10-05T10:29:42.794Z,16.50
2022-10-05T10:34:23.086Z,17.00
2022-10-05T10:38:34.225Z,17.40
2022-10-05T10:42:41.674Z,17.70
2022-10-05T10:47:21.487Z,18.00
2022-10-05T10:51:48.439Z,18.20
2022-10-05T10:56:11.937Z,18.20
2022-10-05T11:00:27.133Z,18.70
2022-10-05T11:05:07.164Z,18.90
2022-10-05T11:09:24.768Z,18.90
2022-10-05T11:13:44.562Z,19.30
2022-10-05T11:17:52.648Z,19.40
2022-10-05T11:22:25.494Z,19.40
2022-10-05T11:26:30.017Z,19.70
2022-10-05T11:31:23.063Z,19.70
2022-10-05T11:35:25.003Z,20.20
2022-10-05T11:39:33.490Z,20.10
2022-10-05T11:43:57.159Z,20.40
2022-10-05T11:48:13.955Z,20.30
2022-10-05T11:52:29.050Z,20.50
2022-10-05T11:56:55.040Z,20.50
2022-10-05T12:01:02.947Z,20.50
2022-10-05T12:05:24.063Z,20.80
2022-10-05T12:10:04.260Z,20.70
2022-10-05T12:14:10.905Z,20.80
2022-10-05T12:18:32.705Z,20.80
2022-10-05T12:22:41.410Z,21.00
2022-10-05T12:26:55.392Z,21.10
2022-10-05T12:31:12.352Z,21.10
2022-10-05T12:35:46.695Z,21.50
2022-10-05T12:44:41.922Z,21.60
2022-10-05T12:48:52.599Z,21.60
2022-10-05T12:53:12.010Z,21.80
2022-10-05T12:57:32.545Z,22.00
2022-10-05T13:01:40.646Z,21.80
2022-10-05T13:06:20.654Z,21.70
2022-10-05T13:11:15.264Z,22.10
2022-10-05T13:16:25.347Z,22.00
2022-10-05T13:21:18.039Z,22.10
2022-10-05T13:25:40.075Z,22.40
2022-10-05T13:30:17.190Z,22.40
2022-10-05T13:34:25.511Z,22.60
2022-10-05T13:38:39.129Z,22.30
2022-10-05T13:43:30.852Z,22.40
2022-10-05T13:48:17.310Z,22.30
2022-10-05T13:52:46.916Z,22.50
2022-10-05T13:57:22.510Z,23.00
2022-10-05T14:06:30.137Z,23.10
2022-10-05T14:11:12.125Z,22.90
2022-10-05T14:15:29.480Z,23.20
2022-10-05T14:19:44.262Z,22.90
2022-10-05T14:23:59.256Z,23.40
2022-10-05T14:28:39.968Z,23.00
2022-10-05T14:33:07.877Z,23.30
2022-10-05T14:37:31.797Z,23.40
2022-10-05T14:41:38.189Z,23.10
2022-10-05T14:45:53.355Z,23.40
2022-10-05T14:50:17.958Z,23.40
2022-10-05T14:54:19.634Z,23.60
2022-10-05T14:58:56.513Z,23.60
2022-10-05T15:03:03.971Z,23.30
2022-10-05T15:07:14.725Z,23.30
2022-10-05T15:11:35.255Z,23.40
2022-10-05T15:15:44.161Z,23.60
2022-10-05T15:20:24.750Z,23.80
2022-10-05T15:24:43.901Z,23.50
2022-10-05T15:28:51.935Z,23.50
2022-10-05T15:33:06.352Z,23.50
2022-10-05T15:37:08.574Z,23.10
2022-10-05T15:41:27.892Z,22.70
2022-10-05T15:45:37.646Z,23.00
2022-10-05T15:49:53.816Z,23.00
2022-10-05T15:54:31.145Z,22.60
2022-10-05T15:58:35.845Z,23.00
2022-10-05T16:02:47.920Z,23.10
2022-10-05T16:07:27.114Z,23.20
2022-10-05T16:11:44.382Z,23.20
2022-10-05T16:15:55.848Z,22.90
2022-10-05T16:20:21.159Z,22.80
2022-10-05T16:25:06.321Z,22.60
2022-10-05T16:29:15.459Z,22.60
2022-10-05T16:33:46.707Z,22.60
2022-10-05T16:38:10.269Z,22.40
2022-10-05T16:42:29.757Z,22.30
2022-10-05T16:47:27.771Z,22.10
2022-10-05T16:51:50.840Z,21.90
2022-10-05T16:56:03.164Z,21.80
2022-10-05T17:00:28.497Z,21.30
2022-10-05T17:04:49.173Z,21.60
2022-10-05T17:09:41.221Z,21.50
2022-10-05T17:14:06.442Z,21.40
2022-10-05T17:18:46.274Z,21.10
2022-10-05T17:23:04.969Z,21.00
2022-10-05T17:27:32.855Z,20.50
2022-10-05T17:32:17.458Z,20.60
2022-10-05T17:36:19.432Z,20.60
2022-10-05T17:40:35.137Z,20.50
2022-10-05T17:44:37.205Z,20.50
2022-10-05T17:48:44.722Z,20.20
2022-10-05T17:53:39.326Z,20.00
2022-10-05T17:57:42.461Z,19.70
2022-10-05T18:02:25.999Z,19.40
2022-10-05T18:06:32.235Z,19.20
2022-10-05T18:10:38.986Z,19.60
2022-10-05T18:15:01.802Z,19.90
2022-10-05T18:19:16.646Z,19.70
2022-10-05T18:23:25.545Z,19.70
2022-10-05T18:27:44.449Z,20.00
2022-10-05T18:31:51.316Z,19.60
2022-10-05T18:36:12.126Z,19.50
2022-10-05T18:40:36.601Z,19.10
2022-10-05T18:44:44.395Z,18.90
2022-10-05T18:49:08.819Z,18.80
2022-10-05T18:53:42.181Z,18.70
2022-10-05T18:58:04.575Z,18.60
2022-10-05T19:02:29.984Z,18.50
2022-10-05T19:06:39.987Z,18.40
2022-10-05T19:10:58.613Z,18.40
2022-10-05T19:15:15.286Z,18.30
2022-10-05T19:19:51.026Z,18.30
2022-10-05T19:24:04.766Z,18.20
2022-10-05T19:28:22.606Z,18.30
2022-10-05T19:32:42.904Z,18.00
2022-10-05T19:36:50.704Z,18.00
2022-10-05T19:40:57.130Z,18.30
2022-10-05T19:45:18.721Z,18.10
2022-10-05T19:49:56.893Z,18.20
2022-10-05T19:54:05.143Z,17.60
2022-10-05T19:58:28.493Z,17.60
2022-10-05T20:02:38.646Z,17.60
2022-10-05T20:06:43.728Z,17.60
2022-10-05T20:11:04.132Z,17.60
2022-10-05T20:15:26.613Z,17.40
2022-10-05T20:19:54.365Z,17.20
2022-10-05T20:24:12.101Z,17.10
2022-10-05T20:28:30.531Z,17.30
2022-10-05T20:32:32.493Z,17.30
2022-10-05T20:36:34.176Z,17.20
2022-10-05T20:40:35.921Z,17.10
2022-10-05T20:44:38.186Z,17.50
2022-10-05T20:48:40.589Z,17.00
2022-10-05T20:52:44.380Z,16.90
2022-10-05T20:56:55.691Z,16.70
2022-10-05T21:01:15.731Z,16.80
2022-10-05T21:05:18.416Z,16.60
2022-10-05T21:09:22.442Z,16.10
2022-10-05T21:13:25.528Z,15.90
2022-10-05T21:17:27.815Z,16.40
2022-10-05T21:21:29.913Z,16.50
2022-10-05T21:25:31.686Z,16.40
2022-10-05T21:29:38.357Z,16.30
2022-10-05T21:33:40.078Z,16.40
2022-10-05T21:37:42.032Z,16.00
2022-10-05T21:41:44.039Z,16.00
2022-10-05T21:45:46.811Z,16.20
2022-10-05T21:49:48.611Z,16.10
2022-10-05T21:53:56.688Z,16.00
2022-10-05T21:57:59.119Z,16.10
2022-10-05T22:02:03.554Z,16.10
2022-10-05T22:06:06.038Z,16.20
2022-10-05T22:10:18.798Z,16.00
2022-10-05T22:14:21.041Z,15.90
2022-10-05T22:18:24.950Z,16.20
2022-10-05T22:22:28.141Z,16.20
2022-10-05T22:26:30.552Z,15.90
2022-10-05T22:30:34.488Z,16.10
2022-10-05T22:34:39.367Z,15.20
2022-10-05T22:38:41.063Z,15.80
2022-10-05T22:42:42.780Z,15.60
2022-10-05T22:46:44.812Z,15.60
2022-10-05T22:50:47.670Z,15.50
2022-10-05T22:54:49.561Z,15.70
2022-10-05T22:58:51.821Z,15.30
2022-10-05T23:02:53.517Z,15.30
2022-10-05T23:06:55.621Z,15.70
2022-10-05T23:11:20.583Z,15.60
2022-10-05T23:15:22.755Z,15.50
2022-10-05T23:19:28.615Z,15.40
2022-10-05T23:23:30.538Z,15.60
2022-10-05T23:27:48.318Z,15.50
2022-10-05T23:31:50.345Z,15.30
2022-10-05T23:36:02.903Z,15.50
2022-10-05T23:40:06.528Z,15.70
2022-10-05T23:44:11.998Z,15.30
2022-10-05T23:48:14.110Z,15.40
2022-10-05T23:52:15.810Z,15.60
2022-10-05T23:56:25.413Z,15.20
